Impacts TAF Board
For situational awareness. Not to be used for flight planning purposes.
IDs:

KMEM - Memphis Intl, TN, US

Issued at 2331 UTC 23 May 2022
Updated at 0054 UTC 24 May 2022
Potential Impact None Slight Moderate High
Time2354Z24/01Z24/02Z24/03Z24/04Z24/05Z24/06Z24/07Z24/08Z24/09Z24/10Z24/11Z24/12Z24/13Z>>
TypeOBSPRVLPRVLPRVLPRVLPRVLPRVLPRVLPRVLPRVLPRVLPRVLPRVLPRVL
VIS10>6>6>6>6>6>6>6>6>6>6>6>6>6
CIG2035353535353535353030303030
CoverOVCOVCOVCOVCOVCOVCOVCOVCOVCOVCOVCOVCOVCOVC
FltCatMVFRVFRVFRVFRVFRVFRVFRVFRVFRMVFRMVFRMVFRMVFRMVFR
WX----------------------------
WDir3050505050505050507070707070
WSpd109999999977777
WGst----------------------------
WSHgt----------------------------
WSDir----------------------------
WSSpd----------------------------
R09/27
XWnd96666666633333
HWnd57777777766666
R18/36
XWnd57777777777777
HWnd-9-6-6-6-6-6-6-6-6-2-2-2-2-2
Raw TAF
KMEM 232331Z 2400/2506 04010KT P6SM OVC025
  FM240100 05009KT P6SM BKN035 OVC050
  FM240900 07007KT P6SM OVC030
  FM241700 12010KT P6SM BKN035 OVC050
  FM242000 14012G18KT P6SM VCTS OVC035CB
  FM250200 15012KT P6SM OVC030


Raw METAR
KMEM 232354Z 03010KT 10SM OVC020 21/15 A3007 RMK AO2 SLP182 T02060150 10233 20206 58003
KMEM 232254Z 02010KT 10SM BKN022 OVC028 21/16 A3009 RMK AO2 SLP185 T02110156
KMEM 232154Z 01006KT 10SM OVC023 22/16 A3008 RMK AO2 SLP184 T02170156

METAR Board
Radar Display
Forecast Discussion
For situational awareness. Not to be used for flight planning purposes.

Page loaded:  00:54 UTC  |   05:54 PM Pacific  |   06:54 PM Mountain  |   07:54 PM Central  |   08:54 PM Eastern

 

ADVISORIES

FORECASTS

FORECASTS

OBSERVATIONS

USER TOOLS

ABOUT US